• Join FlightAware (Why Join?)
  • Login
  • US Flag 
04:23AM EST


 

Airport Tracker/Info


-or-


 

Live Flight TrackerFlight Track Log ✈ N707JC ✈ 18-Jun-2013 ✈ KBED - KVNY

Flight Track Log - Related Links

Times and Time Zones

All times are in EDT time to prevent confusion due to time zone crossing. See the N707JC flight status page for this flight to view local times or setup timezone preferences in your user account.

Time Position Orientation Groundspeed Altitude Reporting Facility
EDT Latitude Longitude Course Direction KTS MPH feet Rate Location/Type
05:52PM 43.1322 -73.9650 272° West 378 435 40,000  Level Boston Center
05:53PM 43.1364 -74.1131 272° West 383 441 40,000  Level Boston Center
05:54PM 43.1383 -74.2553 271° West 383 441 40,000  Level Boston Center
05:55PM 43.1422 -74.4006 272° West 383 441 40,000  Level Boston Center
05:56PM 43.1436 -74.5458 271° West 383 441 40,000  Level Boston Center
05:57PM 43.1450 -74.6911 271° West 383 441 40,000  Level Boston Center
05:58PM 43.1486 -74.8333 272° West 383 441 40,000  Level Boston Center
05:59PM 43.1494 -74.9817 270° West 388 447 40,000  Level Boston Center
06:00PM 43.1503 -75.1294 270° West 388 447 40,000  Level Boston Center
06:01PM 43.1492 -75.2633 269° West 388 447 40,000  Level Boston Center
06:02PM 43.1536 -75.4117 272° West 394 453 40,000  Level Boston Center
06:03PM 43.1558 -75.5625 271° West 394 453 40,000  Level Boston Center
06:04PM 43.1581 -75.7078 271° West 394 453 40,000  Level Boston Center
06:05PM 43.1600 -75.8589 271° West 394 453 40,000  Level Boston Center
06:06PM 43.1597 -76.0042 270° West 394 453 40,000  Level Boston Center
06:07PM 43.1611 -76.1550 271° West 399 459 40,000 120 Level Boston Center
06:09PM 43.1564 -76.4164 269° West 405 466 40,400 360 Climbing Cleveland Center
06:10PM 43.1700 -76.5664 277° West 405 466 41,000 540 Climbing Cleveland Center
06:11PM 43.1761 -76.6828 274° West 400 460 41,500 420 Climbing Cleveland Center
06:12PM 43.1856 -76.8417 275° West 395 455 41,900 300 Climbing Cleveland Center
06:13PM 43.1944 -76.9919 275° West 395 455 42,200 300 Climbing Cleveland Center
06:14PM 43.2053 -77.1394 276° West 395 455 42,500 180 Climbing Cleveland Center
06:15PM 43.2136 -77.2900 274° West 395 455 42,600 120 Climbing Cleveland Center
06:16PM 43.2219 -77.4406 274° West 400 460 42,800 180 Climbing Cleveland Center
06:17PM 43.2322 -77.5942 275° West 405 466 43,000 60 Climbing Cleveland Center
06:18PM 43.2403 -77.7475 274° West 405 466 43,000  Level Cleveland Center
06:19PM 43.2483 -77.9042 274° West 405 466 43,000  Level Cleveland Center
06:20PM 43.2558 -78.0606 274° West 405 466 43,000  Level Cleveland Center
06:21PM 43.2656 -78.2142 275° West 405 466 43,000  Level Cleveland Center
06:22PM 43.2747 -78.3706 275° West 405 466 43,000  Level Cleveland Center
06:23PM 43.2819 -78.5272 274° West 405 466 43,000  Level Cleveland Center
06:24PM 43.2886 -78.6781 274° West 405 466 43,000  Level Cleveland Center
06:25PM 43.2953 -78.8347 273° West 405 466 43,000  Level Cleveland Center
06:26PM 43.3017 -78.9886 273° West 405 466 43,000  Level Cleveland Center
06:27PM 43.3000 -79.1333 269° West 400 460 43,000  Level Toronto Center
06:28PM 43.3000 -79.3167 270° West 410 472 43,000  Level Toronto Center
06:29PM 43.3167 -79.4500 280° West 410 472 43,000  Level Toronto Center
06:30PM 43.3167 -79.6167 270° West 410 472 43,000  Level Toronto Center
06:31PM 43.3167 -79.7667 270° West 410 472 43,000  Level Toronto Center
06:32PM 43.3333 -79.9333 278° West 410 472 43,000  Level Toronto Center
06:33PM 43.3333 -80.0833 270° West 410 472 43,000  Level Toronto Center
06:34PM 43.3500 -80.2500 278° West 420 483 43,000  Level Toronto Center
06:35PM 43.3500 -80.3833 270° West 420 483 43,000  Level Toronto Center
06:36PM 43.3500 -80.5667 270° West 420 483 43,000  Level Toronto Center
06:37PM 43.3667 -80.7167 279° West 420 483 43,000  Level Toronto Center
06:38PM 43.3500 -80.9000 263° West 420 483 43,000  Level Toronto Center
06:39PM 43.3500 -81.0333 270° West 420 483 43,000  Level Toronto Center
06:40PM 43.3667 -81.2167 277° West 420 483 43,000  Level Toronto Center
06:41PM 43.3667 -81.3500 270° West 420 483 43,000  Level Toronto Center
06:42PM 43.3667 -81.5167 270° West 420 483 43,000  Level Toronto Center
06:43PM 43.3833 -81.7000 277° West 420 483 43,000  Level Toronto Center
06:44PM 43.3833 -81.8333 270° West 420 483 43,000  Level Toronto Center
06:45PM 43.3833 -82.0167 270° West 420 483 43,000  Level Toronto Center
06:46PM 43.3833 -82.1500 270° West 420 483 43,000  Level Toronto Center
06:46PM 43.4000 -82.2831 280° West 424 488 43,000  Level Cleveland Center
06:47PM 43.4017 -82.4433 271° West 424 488 43,000  Level Cleveland Center
06:48PM 43.4053 -82.6033 272° West 419 482 43,000  Level Cleveland Center
06:49PM 43.4067 -82.7633 271° West 419 482 43,000  Level Cleveland Center
06:50PM 43.4075 -82.9264 270° West 424 488 43,000  Level Cleveland Center
06:51PM 43.4083 -83.0836 270° West 419 482 43,000  Level Cleveland Center
06:52PM 43.4089 -83.2494 270° West 419 482 43,000  Level Cleveland Center
06:53PM 43.4094 -83.4067 270° West 419 482 43,000  Level Cleveland Center
06:54PM 43.4094 -83.5356 270° West 420 483 43,000  Level Minneapolis Center
06:55PM 43.4000 -83.6000 259° West 420 483 43,000  Level Toronto Center
06:55PM 43.4106 -83.6961 279° West 421 484 43,000  Level Minneapolis Center
06:56PM 43.4111 -83.8572 270° West 423 487 43,000  Level Minneapolis Center
06:57PM 43.4122 -84.0158 271° West 419 482 43,000  Level Minneapolis Center
06:58PM 43.4122 -84.1764 270° West 421 484 43,000  Level Minneapolis Center
06:59PM 43.4117 -84.3364 270° West 421 484 43,000  Level Minneapolis Center
07:00PM 43.4106 -84.5258 270° West 417 480 43,000  Level Minneapolis Center
07:02PM 43.4103 -84.7175 270° West 418 481 43,000  Level Minneapolis Center
07:03PM 43.4092 -84.8769 270° West 419 482 43,000  Level Minneapolis Center
07:04PM 43.4078 -85.0367 269° West 420 483 43,000  Level Minneapolis Center
07:05PM 43.4081 -85.1650 270° West 422 486 43,000  Level Chicago Center
07:06PM 43.4061 -85.3261 269° West 425 489 43,000  Level Chicago Center
07:07PM 43.4039 -85.5172 269° West 420 483 43,000  Level Chicago Center
07:08PM 43.4022 -85.6786 269° West 425 489 43,000  Level Chicago Center
07:09PM 43.3994 -85.8392 269° West 426 490 43,000  Level Chicago Center
07:10PM 43.3972 -85.9981 269° West 422 486 43,000  Level Chicago Center
07:11PM 43.3939 -86.1914 269° West 425 489 43,000  Level Chicago Center
07:12PM 43.3908 -86.3533 269° West 427 491 43,000  Level Chicago Center
07:13PM 43.3878 -86.5161 269° West 429 494 43,000  Level Chicago Center
07:14PM 43.3842 -86.6778 268° West 427 491 43,000  Level Chicago Center
07:15PM 43.3803 -86.8433 268° West 431 496 43,000  Level Chicago Center
07:16PM 43.3764 -87.0408 269° West 436 502 43,000  Level Chicago Center
07:17PM 43.3719 -87.2058 268° West 435 501 43,000  Level Chicago Center
07:18PM 43.3653 -87.3761 267° West 431 496 43,000  Level Chicago Center
07:19PM 43.3600 -87.5436 268° West 437 503 43,000  Level Chicago Center
07:20PM 43.3547 -87.7086 268° West 432 497 43,000  Level Chicago Center
07:21PM 43.3489 -87.8731 267° West 431 496 43,000  Level Chicago Center
07:22PM 43.3417 -88.0642 267° West 431 496 43,000  Level Chicago Center
07:24PM 43.3281 -88.3961 267° West 429 494 43,000  Level Chicago Center
07:25PM 43.3228 -88.5689 268° West 439 505 43,000  Level Chicago Center
07:26PM 43.3161 -88.7375 267° West 437 503 43,000  Level Chicago Center
07:27PM 43.3092 -88.9047 267° West 438 504 43,000  Level Chicago Center
07:28PM 43.3025 -89.0717 267° West 437 503 43,000  Level Chicago Center
07:29PM 43.2944 -89.2681 267° West 441 507 43,000  Level Chicago Center
07:30PM 43.2872 -89.4336 267° West 436 502 43,000  Level Chicago Center
07:31PM 43.2772 -89.6011 265° West 438 504 43,000  Level Chicago Center
07:32PM 43.2692 -89.7694 266° West 441 507 43,000  Level Chicago Center
07:34PM 43.2606 -89.9350 266° West 438 504 43,000  Level Chicago Center
07:35PM 43.2514 -90.1011 266° West 436 502 43,000  Level Chicago Center
07:36PM 43.2422 -90.2894 266° West 436 502 43,000  Level Chicago Center
07:37PM 43.2333 -90.4533 266° West 437 503 43,000  Level Chicago Center
07:38PM 43.2239 -90.6169 266° West 436 502 43,000  Level Chicago Center
07:39PM 43.2147 -90.7797 266° West 435 501 43,000  Level Chicago Center
07:40PM 43.2036 -90.9736 266° West 432 497 43,000  Level Chicago Center
07:41PM 43.1944 -91.1358 266° West 433 498 43,000  Level Chicago Center
07:42PM 43.1828 -91.2978 264° West 434 499 43,000  Level Chicago Center
07:43PM 43.1731 -91.4617 265° West 438 504 43,000  Level Chicago Center
07:44PM 43.1603 -91.6553 265° West 434 499 43,000  Level Chicago Center
07:45PM 43.1489 -91.8164 265° West 434 499 43,000  Level Chicago Center
07:46PM 43.1386 -91.9764 265° West 431 496 43,000  Level Chicago Center
07:47PM 43.1264 -92.1367 264° West 431 496 43,000  Level Chicago Center
07:48PM 43.1131 -92.3292 265° West 431 496 43,000  Level Chicago Center
07:49PM 43.1014 -92.4892 264° West 429 494 43,000  Level Chicago Center
07:50PM 43.0883 -92.6481 264° West 427 491 43,000  Level Chicago Center
07:51PM 43.0772 -92.8050 265° West 422 486 43,000  Level Chicago Center
07:52PM 43.0636 -92.9653 263° West 428 493 43,000  Level Chicago Center
07:53PM 43.0492 -93.1531 264° West 422 486 43,000  Level Chicago Center
07:54PM 43.0375 -93.3106 264° West 421 484 43,000  Level Chicago Center
07:55PM 43.0239 -93.4675 263° West 420 483 43,000  Level Chicago Center
07:56PM 43.0106 -93.6239 263° West 420 483 43,000  Level Chicago Center
07:58PM 42.9917 -93.8736 264° West 418 481 43,000  Level Minneapolis Center
07:59PM 42.9786 -94.0306 264° West 418 481 43,000  Level Minneapolis Center
08:00PM 42.9653 -94.1867 263° West 419 482 43,000  Level Minneapolis Center
08:01PM 42.9411 -94.4033 261° West 418 481 43,000  Level Minneapolis Center
08:02PM 42.9278 -94.5592 263° West 418 481 43,000  Level Minneapolis Center
08:03PM 42.9150 -94.7089 263° West 412 474 43,000  Level Minneapolis Center
08:04PM 42.9006 -94.8661 263° West 417 480 43,000  Level Minneapolis Center
08:05PM 42.8861 -95.0256 263° West 423 487 43,000  Level Minneapolis Center
08:06PM 42.8672 -95.2139 262° West 420 483 43,000  Level Minneapolis Center
08:07PM 42.8506 -95.3711 262° West 420 483 43,000  Level Minneapolis Center
08:08PM 42.8353 -95.5289 263° West 421 484 43,000  Level Minneapolis Center
08:09PM 42.8189 -95.6864 262° West 422 486 43,000  Level Minneapolis Center
08:10PM 42.8028 -95.8467 262° West 425 489 43,000  Level Minneapolis Center
08:11PM 42.7861 -96.0044 262° West 423 487 43,000  Level Minneapolis Center
08:12PM 42.7658 -96.1950 262° West 424 488 43,000  Level Minneapolis Center
08:14PM 42.7483 -96.3536 262° West 425 489 43,000  Level Minneapolis Center
08:15PM 42.7306 -96.5125 261° West 425 489 43,000  Level Minneapolis Center
08:16PM 42.7144 -96.6722 262° West 426 490 43,000  Level Minneapolis Center
08:17PM 42.6961 -96.8286 261° West 422 486 43,000  Level Minneapolis Center
08:18PM 42.6789 -96.9839 261° West 422 486 43,000  Level Minneapolis Center
08:19PM 42.6572 -97.1711 261° West 420 483 43,000  Level Minneapolis Center
08:20PM 42.6383 -97.3275 261° West 421 484 43,000  Level Minneapolis Center
08:21PM 42.6203 -97.4850 261° West 423 487 43,000  Level Minneapolis Center
08:22PM 42.6011 -97.6419 261° West 425 489 43,000  Level Minneapolis Center
08:23PM 42.5822 -97.7989 261° West 423 487 43,000  Level Minneapolis Center
08:24PM 42.5606 -97.9828 261° West 426 490 43,000  Level Minneapolis Center
08:25PM 42.5400 -98.1408 260° West 426 490 43,000  Level Minneapolis Center
08:26PM 42.5206 -98.3006 261° West 430 495 43,000  Level Minneapolis Center
08:27PM 42.5006 -98.4589 260° West 429 494 43,000  Level Minneapolis Center
08:28PM 42.4803 -98.6181 260° West 430 495 43,000  Level Minneapolis Center
08:29PM 42.4231 -98.7936 246° West 431 496 43,000  Level Minneapolis Center
08:30PM 42.3606 -98.9325 239° Southwest 432 497 43,000  Level Minneapolis Center
08:31PM 42.2989 -99.0714 239° Southwest 432 497 43,000  Level Minneapolis Center
08:32PM 42.2361 -99.2092 238° Southwest 432 497 43,000  Level Minneapolis Center
08:33PM 42.1739 -99.3469 239° Southwest 433 498 43,000  Level Minneapolis Center
08:34PM 42.0983 -99.5106 238° Southwest 431 496 43,000  Level Minneapolis Center
08:35PM 42.0358 -99.6478 239° Southwest 431 496 43,000  Level Minneapolis Center
08:36PM 41.9736 -99.7842 238° Southwest 430 495 43,000  Level Minneapolis Center
08:37PM 41.9097 -99.9217 238° Southwest 433 498 43,000  Level Minneapolis Center
08:38PM 41.8464 -100.0594 238° Southwest 434 499 43,000  Level Minneapolis Center
08:44PM 41.5014 -100.8420 238° Southwest 430 495 43,000  Level FlightAware ADS-B
08:44PM 41.4708 -100.9190 242° Southwest 431 496 43,000  Level FlightAware ADS-B
08:45PM 41.4416 -100.9910 242° Southwest 432 497 43,000  Level FlightAware ADS-B
08:45PM 41.4122 -101.0640 242° Southwest 432 497 43,000  Level FlightAware ADS-B
08:46PM 41.3840 -101.1340 242° Southwest 431 496 43,000  Level FlightAware ADS-B
08:46PM 41.3554 -101.2050 242° Southwest 430 495 43,000  Level FlightAware ADS-B
08:47PM 41.3210 -101.2900 242° Southwest 429 494 43,000  Level FlightAware ADS-B
08:48PM 41.2823 -101.3850 242° Southwest 429 494 43,000  Level FlightAware ADS-B
08:48PM 41.2458 -101.4750 242° Southwest 429 494 43,000  Level FlightAware ADS-B
08:49PM 41.2169 -101.5460 242° Southwest 428 493 43,000  Level FlightAware ADS-B
08:49PM 41.1878 -101.6170 241° Southwest 429 494 43,000  Level FlightAware ADS-B
08:50PM 41.1589 -101.6880 242° Southwest 430 495 43,000  Level FlightAware ADS-B
08:50PM 41.1302 -101.7580 241° Southwest 430 495 43,000  Level FlightAware ADS-B
08:51PM 41.0871 -101.8630 241° Southwest 431 496 43,000  Level FlightAware ADS-B
08:53PM 41.0060 -102.0590 241° Southwest 427 491 43,000  Level FlightAware
08:53PM 40.9781 -102.1570 249° West 414 476 43,000  Level FlightAware ADS-B
08:54PM 40.9712 -102.1990 258° West 410 472 43,000 240 Level FlightAware ADS-B
08:54PM 40.9613 -102.2740 260° West 405 466 43,200 360 Climbing FlightAware ADS-B
08:55PM 40.9520 -102.3530 261° West 407 468 43,400 360 Climbing FlightAware ADS-B
08:55PM 40.9443 -102.4280 262° West 410 472 43,600 360 Climbing FlightAware ADS-B
08:56PM 40.9366 -102.5040 262° West 410 472 43,800 480 Climbing FlightAware ADS-B
08:56PM 40.9308 -102.5800 264° West 407 468 44,100 540 Climbing FlightAware ADS-B
08:57PM 40.9263 -102.6540 265° West 405 466 44,400 600 Climbing FlightAware ADS-B
08:57PM 40.9232 -102.7290 267° West 401 461 44,700 420 Climbing FlightAware ADS-B
08:58PM 40.9198 -102.8140 267° West 401 461 44,900 240 Climbing FlightAware ADS-B
08:58PM 40.9161 -102.8880 266° West 401 461 45,000 60 Climbing FlightAware ADS-B
08:59PM 40.9126 -102.9620 266° West 399 459 45,000  Level FlightAware ADS-B
08:59PM 40.9104 -103.0180 267° West 399 459 45,000  Level FlightAware ADS-B
09:00PM 40.9074 -103.0910 267° West 395 455 45,000  Level FlightAware ADS-B
09:00PM 40.9048 -103.1640 267° West 394 453 45,000  Level FlightAware ADS-B
09:01PM 40.9018 -103.2400 267° West 393 452 45,000  Level FlightAware ADS-B
09:01PM 40.8987 -103.3130 267° West 391 450 45,000  Level FlightAware ADS-B
09:02PM 40.8957 -103.3850 267° West 391 450 45,000  Level FlightAware ADS-B
09:02PM 40.8926 -103.4590 267° West 394 453 45,000  Level FlightAware ADS-B
09:03PM 40.8892 -103.5330 267° West 399 459 45,000  Level FlightAware ADS-B
09:03PM 40.8858 -103.6070 267° West 404 465 45,000  Level FlightAware ADS-B
09:03PM 40.8845 -103.6320 266° West 404 465 45,000  Level FlightAware ADS-B
09:04PM 40.8803 -103.6660 261° West 404 465 45,000  Level FlightAware ADS-B
09:04PM 40.8760 -103.6860 254° West 406 467 45,000  Level FlightAware ADS-B
09:04PM 40.8708 -103.7060 251° West 406 467 45,000  Level FlightAware ADS-B
09:04PM 40.8641 -103.7270 247° West 408 470 45,000  Level FlightAware ADS-B
09:05PM 40.8384 -103.7940 243° Southwest 410 472 45,000  Level FlightAware ADS-B
09:05PM 40.8121 -103.8620 243° Southwest 411 473 45,000  Level FlightAware ADS-B
09:06PM 40.7862 -103.9290 243° Southwest 411 473 45,000  Level FlightAware ADS-B
09:06PM 40.7601 -103.9950 242° Southwest 408 470 45,000  Level FlightAware ADS-B
09:07PM 40.7345 -104.0610 243° Southwest 406 467 45,000  Level FlightAware ADS-B
09:07PM 40.7087 -104.1270 243° Southwest 407 468 45,000  Level FlightAware ADS-B
09:08PM 40.6794 -104.2010 242° Southwest 407 468 45,000  Level FlightAware ADS-B
09:08PM 40.6532 -104.2680 243° Southwest 409 471 45,000  Level FlightAware ADS-B
09:09PM 40.6268 -104.3350 243° Southwest 411 473 45,000  Level FlightAware ADS-B
09:09PM 40.6004 -104.4020 243° Southwest 412 474 45,000  Level FlightAware ADS-B
09:10PM 40.5740 -104.4690 243° Southwest 411 473 45,000  Level FlightAware ADS-B
09:10PM 40.5475 -104.5360 243° Southwest 414 476 45,000  Level FlightAware ADS-B
09:11PM 40.5207 -104.6030 242° Southwest 415 478 45,000  Level FlightAware ADS-B
09:11PM 40.4935 -104.6710 242° Southwest 418 481 45,000  Level FlightAware ADS-B
09:12PM 40.4655 -104.7410 242° Southwest 421 484 45,000  Level FlightAware ADS-B
09:12PM 40.4387 -104.8090 243° Southwest 421 484 45,000  Level FlightAware ADS-B
09:13PM 40.4112 -104.8770 242° Southwest 423 487 45,000  Level FlightAware ADS-B
09:13PM 40.3835 -104.9460 242° Southwest 423 487 45,000  Level FlightAware ADS-B
09:14PM 40.3560 -105.0140 242° Southwest 422 486 45,000  Level FlightAware ADS-B
09:14PM 40.3283 -105.0830 242° Southwest 421 484 45,000  Level FlightAware ADS-B
09:15PM 40.3006 -105.1510 242° Southwest 420 483 45,000  Level FlightAware ADS-B
09:15PM 40.2717 -105.2220 242° Southwest 420 483 45,000  Level FlightAware ADS-B
09:16PM 40.2434 -105.2920 242° Southwest 421 484 45,000  Level FlightAware ADS-B
09:16PM 40.2151 -105.3620 242° Southwest 425 489 45,000  Level FlightAware ADS-B
09:17PM 40.1835 -105.4390 242° Southwest 428 493 45,000  Level FlightAware ADS-B
09:17PM 40.1498 -105.5210 242° Southwest 429 494 45,000  Level FlightAware ADS-B
09:18PM 40.1208 -105.5920 242° Southwest 425 489 45,000  Level FlightAware ADS-B
09:18PM 40.0920 -105.6620 242° Southwest 417 480 45,000  Level FlightAware ADS-B
09:19PM 40.0634 -105.7310 242° Southwest 416 479 45,000  Level FlightAware ADS-B
09:19PM 40.0422 -105.7840 242° Southwest 422 486 45,000  Level FlightAware ADS-B
09:20PM 40.0206 -105.8570 249° West 426 490 45,000  Level FlightAware ADS-B
09:20PM 39.9976 -105.9380 250° West 431 496 45,000  Level FlightAware ADS-B
09:21PM 39.9847 -105.9820 249° West 434 499 45,000  Level FlightAware ADS-B
09:21PM 39.9612 -106.0560 248° West 430 495 45,000  Level FlightAware ADS-B
09:22PM 39.9380 -106.1290 248° West 434 499 45,000  Level FlightAware ADS-B
09:22PM 39.9142 -106.2030 247° West 424 488 45,000  Level FlightAware ADS-B
09:23PM 39.8920 -106.2740 248° West 421 484 45,000  Level FlightAware ADS-B
09:23PM 39.8701 -106.3440 248° West 418 481 45,000  Level FlightAware ADS-B
09:24PM 39.8477 -106.4150 248° West 418 481 45,000  Level FlightAware ADS-B
09:24PM 39.8250 -106.4870 248° West 418 481 45,000  Level FlightAware ADS-B
09:25PM 39.8020 -106.5580 247° West 423 487 45,000  Level FlightAware ADS-B
09:25PM 39.7791 -106.6280 247° West 423 487 45,000  Level FlightAware ADS-B
09:26PM 39.7565 -106.6990 248° West 421 484 45,000  Level FlightAware ADS-B
09:26PM 39.7343 -106.7690 248° West 423 487 45,000  Level FlightAware ADS-B
09:27PM 39.7108 -106.8410 247° West 421 484 45,000  Level FlightAware ADS-B
09:27PM 39.6897 -106.9050 247° West 418 481 45,000  Level FlightAware ADS-B
09:28PM 39.6616 -106.9710 241° Southwest 419 482 45,000  Level FlightAware ADS-B
09:28PM 39.6318 -107.0380 240° Southwest 421 484 45,000  Level FlightAware ADS-B
09:29PM 39.6026 -107.1040 240° Southwest 423 487 45,000  Level FlightAware ADS-B
09:29PM 39.5699 -107.1770 240° Southwest 422 486 45,000  Level FlightAware ADS-B
09:30PM 39.5397 -107.2450 240° Southwest 422 486 45,000  Level FlightAware ADS-B
09:30PM 39.5096 -107.3130 240° Southwest 422 486 45,000  Level FlightAware ADS-B
09:31PM 39.4794 -107.3810 240° Southwest 423 487 45,000  Level FlightAware ADS-B
09:31PM 39.4493 -107.4480 240° Southwest 424 488 45,000  Level FlightAware ADS-B
09:32PM 39.4158 -107.5220 240° Southwest 422 486 45,000  Level FlightAware ADS-B
09:33PM 39.3849 -107.5910 240° Southwest 423 487 45,000  Level FlightAware ADS-B
09:33PM 39.3552 -107.6570 240° Southwest 423 487 45,000  Level FlightAware ADS-B
09:34PM 39.3250 -107.7240 240° Southwest 422 486 45,000  Level FlightAware ADS-B
09:34PM 39.2956 -107.7890 240° Southwest 421 484 45,000  Level FlightAware ADS-B
09:35PM 39.2655 -107.8550 240° Southwest 423 487 45,000  Level FlightAware ADS-B
09:35PM 39.2357 -107.9210 240° Southwest 427 491 45,000  Level FlightAware ADS-B
09:36PM 39.2050 -107.9880 239° Southwest 424 488 45,000  Level FlightAware
09:36PM 39.1922 -108.0170 240° Southwest 427 491 45,000  Level FlightAware ADS-B
09:37PM 39.1240 -108.1660 239° Southwest 420 483 45,000  Level FlightAware
09:38PM 39.0820 -108.2570 239° Southwest 416 479 45,000  Level FlightAware
09:38PM 39.0400 -108.3490 240° Southwest 418 481 45,000  Level FlightAware
09:39PM 38.9980 -108.4390 239° Southwest 422 486 45,000  Level FlightAware
09:40PM 38.9560 -108.5290 239° Southwest 421 484 45,000  Level FlightAware
09:41PM 38.9130 -108.6230 240° Southwest 415 478 45,000  Level FlightAware
09:41PM 38.8740 -108.7050 239° Southwest 417 480 45,000  Level FlightAware
09:42PM 38.8290 -108.8030 240° Southwest 421 484 45,000  Level FlightAware
09:43PM 38.7930 -108.8810 239° Southwest 424 488 45,000  Level FlightAware
09:43PM 38.7480 -108.9760 239° Southwest 422 486 45,000  Level FlightAware
09:44PM 38.7040 -109.0690 239° Southwest 424 488 45,000  Level FlightAware
09:45PM 38.6680 -109.1450 239° Southwest 418 481 45,000  Level FlightAware
09:45PM 38.6220 -109.2420 239° Southwest 415 478 45,000  Level FlightAware
09:46PM 38.5790 -109.3330 239° Southwest 418 481 45,000  Level FlightAware
09:47PM 38.5360 -109.4230 239° Southwest 420 483 45,000  Level FlightAware
09:48PM 38.4950 -109.5080 238° Southwest 418 481 45,000  Level FlightAware
09:48PM 38.4530 -109.5960 239° Southwest 413 475 45,000  Level FlightAware
09:49PM 38.4090 -109.6870 238° Southwest 410 472 45,000  Level FlightAware
09:50PM 38.3710 -109.7680 239° Southwest 404 465 45,000  Level FlightAware
09:50PM 38.3280 -109.8560 238° Southwest 403 464 45,000  Level FlightAware
09:51PM 38.2870 -109.9410 238° Southwest 411 473 45,000  Level FlightAware
09:52PM 38.2430 -110.0310 238° Southwest 408 470 45,000  Level FlightAware
09:52PM 38.2050 -110.1090 238° Southwest 408 470 45,000  Level FlightAware
09:53PM 38.1630 -110.1950 238° Southwest 411 473 45,000  Level FlightAware
09:54PM 38.1190 -110.2860 238° Southwest 414 476 45,000  Level FlightAware
09:55PM 38.0740 -110.3770 238° Southwest 412 474 45,000  Level FlightAware
09:55PM 38.0340 -110.4590 238° Southwest 410 472 45,000  Level FlightAware
09:56PM 37.9970 -110.5340 238° Southwest 402 463 45,000  Level FlightAware
09:57PM 37.9520 -110.6250 238° Southwest 401 461 45,000  Level FlightAware
09:57PM 37.9100 -110.7100 238° Southwest 405 466 45,000  Level FlightAware
09:58PM 37.8670 -110.7970 238° Southwest 406 467 45,000  Level FlightAware
09:59PM 37.8260 -110.8790 238° Southwest 405 466 45,000  Level FlightAware
09:59PM 37.7870 -110.9570 238° Southwest 404 465 45,000  Level FlightAware
10:00PM 37.7290 -111.0730 238° Southwest 410 472 45,000  Level FlightAware
10:01PM 37.6840 -111.1630 238° Southwest 416 479 45,000  Level FlightAware
10:02PM 37.6450 -111.2400 237° Southwest 419 482 45,000  Level FlightAware
10:03PM 37.5960 -111.3360 237° Southwest 419 482 45,000  Level FlightAware
10:03PM 37.5550 -111.4180 238° Southwest 415 478 45,000  Level FlightAware
10:04PM 37.5100 -111.5070 238° Southwest 414 476 45,000  Level FlightAware
10:05PM 37.4680 -111.5890 237° Southwest 415 478 45,000  Level FlightAware
10:05PM 37.4230 -111.6780 238° Southwest 416 479 45,000  Level FlightAware
10:06PM 37.3790 -111.7620 237° Southwest 409 471 45,000  Level FlightAware
10:07PM 37.3390 -111.8410 238° Southwest 404 465 45,000  Level FlightAware
10:07PM 37.2940 -111.9290 237° Southwest 399 459 45,000 -240 Level FlightAware
10:08PM 37.2540 -112.0050 237° Southwest 404 465 44,700 -540 Descending FlightAware
10:09PM 37.2100 -112.0920 238° Southwest 404 465 44,300 -540 Descending FlightAware
10:09PM 37.1690 -112.1700 237° Southwest 398 458 44,000 -480 Descending FlightAware
10:10PM 37.1240 -112.2570 237° Southwest 394 453 43,700 -360 Descending FlightAware
10:11PM 37.0840 -112.3340 237° Southwest 388 447 43,500 -420 Descending FlightAware
10:12PM 37.0440 -112.4100 237° Southwest 392 451 43,200 -360 Descending FlightAware
10:12PM 37.0010 -112.4930 237° Southwest 396 456 43,000 -180 Descending FlightAware
10:13PM 36.9630 -112.5650 237° Southwest 398 458 43,000  Level FlightAware
10:14PM 36.9160 -112.6530 236° Southwest 397 457 43,000  Level FlightAware
10:14PM 36.8780 -112.7270 237° Southwest 394 453 43,000  Level FlightAware
10:15PM 36.8200 -112.8360 236° Southwest 395 455 43,000  Level FlightAware
10:16PM 36.7790 -112.9140 237° Southwest 397 457 43,000  Level FlightAware
10:17PM 36.7330 -113.0000 236° Southwest 394 453 43,000  Level FlightAware
10:17PM 36.6930 -113.0760 237° Southwest 386 444 43,000  Level FlightAware
10:18PM 36.6500 -113.1560 236° Southwest 382 440 43,000  Level FlightAware
10:19PM 36.6110 -113.2290 236° Southwest 379 436 43,000  Level FlightAware
10:19PM 36.5710 -113.3030 236° Southwest 385 443 43,000  Level FlightAware
10:20PM 36.5450 -113.3530 237° Southwest 388 447 43,000  Level FlightAware
10:21PM 36.4920 -113.4500 236° Southwest 389 448 43,000  Level FlightAware
10:22PM 36.4490 -113.5310 237° Southwest 388 447 43,000  Level FlightAware
10:22PM 36.4070 -113.6090 236° Southwest 391 450 43,000  Level FlightAware
10:23PM 36.3660 -113.6850 236° Southwest 395 455 43,000  Level FlightAware
10:24PM 36.3200 -113.7680 235° Southwest 399 459 43,000  Level FlightAware
10:24PM 36.2800 -113.8420 236° Southwest 399 459 43,000  Level FlightAware
10:25PM 36.2370 -113.9200 236° Southwest 385 443 43,000  Level FlightAware
10:26PM 36.1970 -113.9940 236° Southwest 380 437 43,000 -120 Level FlightAware
10:26PM 36.1510 -114.0780 236° Southwest 383 441 42,900 -600 Descending FlightAware
10:27PM 36.1120 -114.1490 236° Southwest 394 453 42,200 -960 Descending FlightAware
10:28PM 36.0680 -114.2290 236° Southwest 393 452 41,600 -900 Descending FlightAware
10:28PM 36.0260 -114.3050 236° Southwest 383 441 41,000 -1,020 Descending FlightAware
10:29PM 35.9820 -114.3840 235° Southwest 375 432 40,200 -960 Descending FlightAware
10:30PM 35.9280 -114.4830 236° Southwest 379 436 39,400 -960 Descending FlightAware
10:31PM 35.8900 -114.5510 235° Southwest 379 436 38,700 -1,080 Descending FlightAware
10:32PM 35.8470 -114.6280 235° Southwest 381 438 38,000 -1,020 Descending FlightAware
10:32PM 35.8060 -114.7010 235° Southwest 378 435 37,300 -1,020 Descending FlightAware
10:33PM 35.7630 -114.7780 235° Southwest 382 440 36,600 -1,020 Descending FlightAware
10:34PM 35.7190 -114.8560 235° Southwest 396 456 35,900 -960 Descending FlightAware
10:34PM 35.6740 -114.9350 235° Southwest 396 456 35,300 -840 Descending FlightAware
10:35PM 35.6290 -115.0170 236° Southwest 396 456 34,700 -840 Descending FlightAware
10:36PM 35.5870 -115.0900 235° Southwest 406 467 34,200 -540 Descending FlightAware
10:36PM 35.5390 -115.1760 236° Southwest 410 472 34,000 -180 Descending FlightAware
10:37PM 35.4980 -115.2480 235° Southwest 410 472 34,000  Level FlightAware
10:38PM 35.4490 -115.3340 235° Southwest 408 470 34,000  Level FlightAware
10:39PM 35.4070 -115.4080 235° Southwest 402 463 34,000  Level FlightAware
10:39PM 35.3590 -115.4930 235° Southwest 407 468 34,000 -300 Level FlightAware
10:40PM 35.2900 -115.6120 235° Southwest 406 467 33,500 -840 Descending FlightAware
10:41PM 35.2420 -115.6960 235° Southwest 414 476 32,500 -1,320 Descending FlightAware
10:42PM 35.1990 -115.7700 235° Southwest 418 481 31,700 -1,380 Descending FlightAware
10:42PM 35.1530 -115.8510 235° Southwest 421 484 30,700 -1,500 Descending FlightAware
10:43PM 35.1040 -115.9340 234° Southwest 419 482 29,600 -1,440 Descending FlightAware
10:44PM 35.0590 -116.0130 235° Southwest 415 478 28,700 -1,380 Descending FlightAware
10:45PM 35.0130 -116.0930 235° Southwest 409 471 27,700 -1,440 Descending FlightAware
10:45PM 34.9520 -116.1970 234° Southwest 404 465 26,400 -840 Descending FlightAware
10:46PM 34.9090 -116.2690 234° Southwest 402 463 26,300 -120 Descending FlightAware
10:47PM 34.8760 -116.3260 235° Southwest 402 463 26,300 -1,440 Level FlightAware
10:48PM 34.8140 -116.4330 235° Southwest 393 452 24,200 -1,260 Descending FlightAware
10:48PM 34.7690 -116.5070 234° Southwest 393 452 24,200  Level FlightAware
10:49PM 34.7360 -116.5630 234° Southwest 393 452 24,200  Level FlightAware
10:50PM 34.6910 -116.6380 234° Southwest 393 452 24,200 -1,500 Level FlightAware
10:51PM 34.7620 -116.8200 295° West 386 444 22,000 -1,680 Descending FlightAware
10:51PM 34.7540 -116.9020 263° West 388 447 22,000 -300 Level FlightAware
10:52PM 34.7440 -116.9980 263° West 384 442 21,600 -900 Descending FlightAware
10:53PM 34.7350 -117.0860 263° West 373 429 20,800 -1,200 Descending FlightAware
10:53PM 34.7260 -117.1730 263° West 366 421 20,000 -1,200 Descending FlightAware
10:54PM 34.7170 -117.2600 263° West 358 412 19,100 -1,260 Descending FlightAware
10:55PM 34.7060 -117.3680 263° West 349 402 18,000 -1,200 Descending FlightAware
10:56PM 34.6980 -117.4460 263° West 345 397 17,200 -1,200 Descending FlightAware
10:56PM 34.6890 -117.5270 262° West 341 392 16,400 -1,200 Descending FlightAware
10:57PM 34.6800 -117.6090 262° West 339 390 15,600 -1,200 Descending FlightAware
10:58PM 34.6730 -117.6830 263° West 341 392 14,800 -1,260 Descending FlightAware
10:59PM 34.6630 -117.7710 262° West 339 390 13,800 -1,260 Descending FlightAware
10:59PM 34.6530 -117.8380 260° West 330 380 13,100 -1,200 Descending FlightAware
11:00PM 34.6400 -117.9170 259° West 315 362 12,200 -1,200 Descending FlightAware
11:01PM 34.6270 -117.9930 258° West 293 337 11,300 -660 Descending FlightAware
11:01PM 34.6170 -118.0530 259° West 287 330 11,300  Level FlightAware
11:02PM 34.6090 -118.1010 259° West 287 330 11,300 -1,560 Level FlightAware
11:02PM 34.6000 -118.1590 259° West 266 306 9,600 -2,100 Descending FlightAware
11:03PM 34.5970 -118.1770 259° West 266 306 9,400 -1,020 Descending FlightAware
11:03PM 34.5850 -118.2430 258° West 270 311 8,700 -1,260 Descending FlightAware
11:04PM 34.5810 -118.2660 258° West 270 311 8,400 -840 Descending FlightAware
11:04PM 34.5750 -118.3020 259° West 262 302 8,100 -360 Descending FlightAware
11:05PM 34.5690 -118.3360 258° West 262 302 8,100  Level FlightAware
11:05PM 34.5640 -118.3680 259° West 262 302 8,100  Level FlightAware
11:05PM 34.5580 -118.4030 258° West 262 302 8,100  Level FlightAware
11:06PM 34.5550 -118.4170 255° West 262 302 8,100  Level FlightAware
11:06PM 34.5500 -118.4470 259° West 262 302 8,100 -720 Level FlightAware
11:07PM 34.4580 -118.4870 200° South 240 276 7,100 -780 Descending FlightAware
11:08PM 34.4430 -118.4960 206° Southwest 199 229 7,000 -180 Descending FlightAware
11:08PM 34.4240 -118.5080 208° Southwest 199 229 7,000 -1,380 Level FlightAware
11:10PM 34.3370 -118.5030 177° South 145 167 4,000 -1,380 Descending FlightAware
11:10PM 34.3190 -118.5010 175° South 145 167 3,900 -1,080 Descending FlightAware
11:12PM 34.2667 -118.5000 175° South 116 133 2,000 -1,140 Descending Southern California TRACON
11:13PM 34.2333 -118.5000 180° South 120 138 1,300 -720 Descending Southern California TRACON
11:15PM 34.2098 -118.4900 180° South  Level Estimated
11:22PM 34.2098 -118.4900 180° South  Level Estimated